createdAt,value
2018-03-25T08:45:48.319Z,29.07
2018-03-25T08:48:15.858Z,30.57
2018-03-25T08:55:38.878Z,30.57
2018-03-25T08:58:06.413Z,28.90
2018-03-25T09:00:33.909Z,31.17
2018-03-25T09:03:01.462Z,30.93
2018-03-25T09:05:28.988Z,30.07
2018-03-25T09:07:56.504Z,30.97
2018-03-25T09:10:23.976Z,30.07
2018-03-25T09:12:52.249Z,30.50
2018-03-25T09:15:20.526Z,30.60
2018-03-25T09:17:48.768Z,29.20
2018-03-25T09:20:16.246Z,31.27
2018-03-25T09:22:43.752Z,32.73
2018-03-25T09:25:11.206Z,30.53
2018-03-25T09:27:38.749Z,30.60
2018-03-25T09:30:07.374Z,31.23
2018-03-25T09:32:34.919Z,30.47
2018-03-25T09:35:02.432Z,30.63
2018-03-25T09:37:30.672Z,29.60
2018-03-25T09:39:58.144Z,28.80
2018-03-25T09:42:25.646Z,28.40
2018-03-25T09:44:53.162Z,29.60
2018-03-25T09:47:21.477Z,30.97
2018-03-25T09:49:49.001Z,28.60
2018-03-25T09:52:17.277Z,29.40
2018-03-25T09:54:45.596Z,28.73
2018-03-25T09:57:13.072Z,29.33
2018-03-25T09:59:40.615Z,29.37
2018-03-25T10:02:12.009Z,28.27
2018-03-25T10:04:39.511Z,28.60
2018-03-25T10:07:06.983Z,27.57
2018-03-25T10:09:34.547Z,27.70
2018-03-25T10:12:02.057Z,28.90
2018-03-25T10:14:29.553Z,27.53
2018-03-25T10:16:57.036Z,28.73
2018-03-25T10:19:24.549Z,28.07
2018-03-25T10:21:52.017Z,30.27
2018-03-25T10:24:19.485Z,29.30
2018-03-25T10:26:46.995Z,28.37
2018-03-25T10:29:15.239Z,28.83
2018-03-25T10:31:42.725Z,29.30
2018-03-25T10:34:10.965Z,26.77
2018-03-25T10:36:38.443Z,27.50
2018-03-25T10:39:05.929Z,28.27
2018-03-25T10:41:33.413Z,27.30
2018-03-25T10:44:00.910Z,30.17
2018-03-25T10:46:28.397Z,28.97
2018-03-25T10:48:56.633Z,30.53
2018-03-25T10:51:24.120Z,28.40
2018-03-25T10:53:52.344Z,28.77
2018-03-25T10:56:19.916Z,29.83
2018-03-25T10:58:47.405Z,28.03
2018-03-25T11:01:15.714Z,28.33
2018-03-25T11:03:43.243Z,28.87
2018-03-25T11:06:11.543Z,29.23
2018-03-25T11:08:39.032Z,28.83
2018-03-25T11:11:06.525Z,28.50
2018-03-25T11:13:33.993Z,28.60
2018-03-25T11:16:02.237Z,28.50
2018-03-25T11:18:29.770Z,27.27
2018-03-25T11:20:57.259Z,27.50
2018-03-25T11:23:24.760Z,27.83
2018-03-25T11:25:52.311Z,26.80
2018-03-25T11:28:19.802Z,27.50
2018-03-25T11:30:47.308Z,25.67
2018-03-25T11:33:15.562Z,26.40
2018-03-25T11:35:43.144Z,26.93
2018-03-25T11:38:11.410Z,26.70
2018-03-25T11:40:38.898Z,24.70
2018-03-25T11:43:06.389Z,24.53
2018-03-25T11:45:33.977Z,25.00
2018-03-25T11:48:01.450Z,28.00
2018-03-25T11:50:29.703Z,27.83
2018-03-25T11:52:57.207Z,26.80
2018-03-25T11:55:24.700Z,25.37
2018-03-25T11:57:52.183Z,27.50
2018-03-25T12:00:19.661Z,24.03
2018-03-25T12:02:47.906Z,25.30
2018-03-25T12:05:15.592Z,26.87
2018-03-25T12:07:43.875Z,23.83
2018-03-25T12:10:12.114Z,24.00
2018-03-25T12:12:39.612Z,22.60
2018-03-25T12:15:07.092Z,20.13
2018-03-25T12:17:34.617Z,20.80
2018-03-25T12:20:02.884Z,22.27
2018-03-25T12:22:31.413Z,20.00
2018-03-25T12:24:58.909Z,16.83
2018-03-25T12:27:26.400Z,16.00
2018-03-25T12:29:53.883Z,11.90
2018-03-25T12:32:21.389Z,12.67
2018-03-25T12:34:48.865Z,16.33
2018-03-25T12:37:16.358Z,34.57
2018-03-25T12:39:43.839Z,25.53
2018-03-25T12:42:11.332Z,15.87
2018-03-25T12:44:39.631Z,12.47
2018-03-25T12:47:07.132Z,16.20
2018-03-25T12:49:34.640Z,16.63
2018-03-25T12:52:02.126Z,21.37
2018-03-25T12:54:29.596Z,19.00
2018-03-25T12:56:57.173Z,20.23
2018-03-25T12:59:24.668Z,19.70
2018-03-25T13:01:52.173Z,20.70
2018-03-25T13:04:19.689Z,21.03
2018-03-25T13:06:47.260Z,20.47
2018-03-25T13:09:14.768Z,19.80
2018-03-25T13:11:43.094Z,20.20
2018-03-25T13:14:10.609Z,16.87
2018-03-25T13:16:39.648Z,18.33
2018-03-25T13:19:07.231Z,17.63
2018-03-25T13:21:34.730Z,16.90
2018-03-25T13:24:03.032Z,16.60
2018-03-25T13:26:30.565Z,15.70
2018-03-25T13:28:58.833Z,16.40
2018-03-25T13:31:27.086Z,16.73
2018-03-25T13:33:54.559Z,16.60
2018-03-25T13:36:22.798Z,16.47
2018-03-25T13:38:50.265Z,17.23
2018-03-25T13:41:17.736Z,17.93
2018-03-25T13:43:45.220Z,16.53
2018-03-25T13:46:13.461Z,16.97
2018-03-25T13:48:40.937Z,17.87
2018-03-25T13:51:09.186Z,16.40
2018-03-25T13:53:36.678Z,16.40
2018-03-25T13:56:04.904Z,17.47
2018-03-25T13:58:32.377Z,16.60
2018-03-25T14:00:59.839Z,16.93
2018-03-25T14:03:27.330Z,17.77
2018-03-25T14:05:55.564Z,17.27
2018-03-25T14:08:23.044Z,17.47
2018-03-25T14:10:50.578Z,16.63
2018-03-25T14:13:18.168Z,16.93
2018-03-25T14:15:46.488Z,17.30
2018-03-25T14:18:13.981Z,17.23
2018-03-25T14:20:41.457Z,17.93
2018-03-25T14:23:08.963Z,18.93
2018-03-25T14:25:36.429Z,18.10
2018-03-25T14:28:03.928Z,17.83
2018-03-25T14:30:32.259Z,17.80
2018-03-25T14:32:59.741Z,19.20
2018-03-25T14:35:27.288Z,19.90
2018-03-25T14:37:54.789Z,20.80
2018-03-25T14:40:23.066Z,20.90
2018-03-25T14:42:51.691Z,19.27
2018-03-25T14:45:19.192Z,20.83
2018-03-25T14:47:47.457Z,21.53
2018-03-25T14:50:14.943Z,19.60
2018-03-25T14:52:43.223Z,19.87
2018-03-25T14:55:11.533Z,19.73
2018-03-25T14:57:39.064Z,20.10
2018-03-25T15:00:06.643Z,19.97
2018-03-25T15:02:34.209Z,20.03
2018-03-25T15:05:01.764Z,18.40
2018-03-25T15:07:29.346Z,18.47
2018-03-25T15:09:56.824Z,19.57
2018-03-25T15:12:24.337Z,19.23
2018-03-25T15:14:51.790Z,19.97
2018-03-25T15:17:19.273Z,18.80
2018-03-25T15:19:46.755Z,19.53
2018-03-25T15:22:14.228Z,19.23
2018-03-25T15:24:42.538Z,18.87
2018-03-25T15:27:10.064Z,18.37
2018-03-25T15:29:38.348Z,17.50
2018-03-25T15:32:05.913Z,18.10
2018-03-25T15:34:34.183Z,16.97
2018-03-25T15:37:02.434Z,18.00
2018-03-25T15:39:30.821Z,17.67
2018-03-25T15:41:59.094Z,18.33
2018-03-25T15:44:27.374Z,18.30
2018-03-25T15:46:55.632Z,17.97
2018-03-25T15:49:23.105Z,18.87
2018-03-25T15:51:50.600Z,18.03
2018-03-25T15:54:18.202Z,18.27
2018-03-25T15:56:45.742Z,16.70
2018-03-25T15:59:13.233Z,17.00
2018-03-25T16:01:40.727Z,16.73
2018-03-25T16:04:08.973Z,18.10
2018-03-25T16:06:36.527Z,18.00
2018-03-25T16:09:04.000Z,16.70
2018-03-25T16:11:32.264Z,19.07
2018-03-25T16:13:59.801Z,17.73
2018-03-25T16:16:27.348Z,18.13
2018-03-25T16:18:54.888Z,17.03
2018-03-25T16:21:22.473Z,18.30
2018-03-25T16:23:50.021Z,17.43
2018-03-25T16:26:17.558Z,21.60
2018-03-25T16:28:45.110Z,17.80
2018-03-25T16:31:13.421Z,19.00
2018-03-25T16:33:40.990Z,18.43
2018-03-25T16:36:08.537Z,18.50
2018-03-25T16:38:37.968Z,21.67
2018-03-25T16:41:05.537Z,23.43
2018-03-25T16:43:33.082Z,21.90
2018-03-25T16:46:00.673Z,24.10
2018-03-25T16:48:29.084Z,37.33
2018-03-25T16:50:56.792Z,36.97
2018-03-25T16:53:24.342Z,34.50
2018-03-25T16:55:51.925Z,22.50
2018-03-25T16:58:19.464Z,23.23
2018-03-25T17:00:47.020Z,30.37
2018-03-25T17:03:14.568Z,30.60
2018-03-25T17:05:42.164Z,25.10
2018-03-25T17:08:09.705Z,25.50
2018-03-25T17:10:37.205Z,25.93
2018-03-25T17:13:05.520Z,24.37
2018-03-25T17:15:33.093Z,24.70
2018-03-25T17:18:00.674Z,21.57
2018-03-25T17:20:28.239Z,22.60
2018-03-25T17:22:56.042Z,21.00
2018-03-25T17:25:23.627Z,20.33
2018-03-25T17:27:51.213Z,20.07
2018-03-25T17:30:18.777Z,19.87
2018-03-25T17:32:46.441Z,20.23
2018-03-25T17:35:13.984Z,21.57
2018-03-25T17:37:41.548Z,19.53
2018-03-25T17:40:09.107Z,20.10
2018-03-25T17:42:36.644Z,19.43
2018-03-25T17:45:04.145Z,21.33
2018-03-25T17:47:31.673Z,22.40
2018-03-25T17:49:59.206Z,22.33
2018-03-25T17:52:26.789Z,23.80
2018-03-25T17:54:54.322Z,23.37
2018-03-25T17:57:21.837Z,20.73
2018-03-25T17:59:49.389Z,23.03
2018-03-25T18:02:16.985Z,20.83
2018-03-25T18:04:44.560Z,22.00
2018-03-25T18:07:12.144Z,23.83
2018-03-25T18:09:39.685Z,26.20
